sensor_id;sensor_type;location;lat;lon;timestamp;pressure;altitude;pressure_sealevel;temperature;humidity
55592;BME280;41454;53.396;-1.510;2022-12-18T00:01:45;100550.46;;;-0.13;100.00
55592;BME280;41454;53.396;-1.510;2022-12-18T00:04:19;100548.52;;;-0.12;100.00
55592;BME280;41454;53.396;-1.510;2022-12-18T00:06:47;100543.54;;;-0.00;100.00
55592;BME280;41454;53.396;-1.510;2022-12-18T00:09:14;100538.71;;;-0.62;100.00
55592;BME280;41454;53.396;-1.510;2022-12-18T00:11:42;100536.32;;;-0.36;100.00
55592;BME280;41454;53.396;-1.510;2022-12-18T00:14:11;100543.91;;;-0.20;100.00
55592;BME280;41454;53.396;-1.510;2022-12-18T00:16:39;100546.96;;;-0.20;100.00
55592;BME280;41454;53.396;-1.510;2022-12-18T00:19:08;100550.72;;;-0.02;100.00
55592;BME280;41454;53.396;-1.510;2022-12-18T00:21:35;100549.66;;;-0.11;100.00
55592;BME280;41454;53.396;-1.510;2022-12-18T00:24:03;100549.03;;;-0.35;100.00
55592;BME280;41454;53.396;-1.510;2022-12-18T00:26:32;100546.67;;;0.37;100.00
55592;BME280;41454;53.396;-1.510;2022-12-18T00:29:02;100545.23;;;0.68;100.00
55592;BME280;41454;53.396;-1.510;2022-12-18T00:31:30;100550.31;;;0.39;100.00
55592;BME280;41454;53.396;-1.510;2022-12-18T00:33:58;100556.62;;;0.32;100.00
55592;BME280;41454;53.396;-1.510;2022-12-18T00:36:27;100557.04;;;0.34;100.00
55592;BME280;41454;53.396;-1.510;2022-12-18T00:38:55;100557.39;;;-0.55;100.00
55592;BME280;41454;53.396;-1.510;2022-12-18T00:41:23;100559.63;;;-0.26;100.00
55592;BME280;41454;53.396;-1.510;2022-12-18T00:43:51;100559.99;;;0.27;100.00
55592;BME280;41454;53.396;-1.510;2022-12-18T00:46:17;100558.00;;;-0.13;100.00
55592;BME280;41454;53.396;-1.510;2022-12-18T00:48:44;100552.68;;;0.43;100.00
55592;BME280;41454;53.396;-1.510;2022-12-18T00:51:11;100549.87;;;0.19;100.00
55592;BME280;41454;53.396;-1.510;2022-12-18T00:53:38;100550.06;;;0.16;100.00
55592;BME280;41454;53.396;-1.510;2022-12-18T00:56:06;100553.83;;;0.03;100.00
55592;BME280;41454;53.396;-1.510;2022-12-18T00:58:33;100559.35;;;0.61;100.00
55592;BME280;41454;53.396;-1.510;2022-12-18T01:01:00;100559.39;;;0.48;100.00
55592;BME280;41454;53.396;-1.510;2022-12-18T01:03:27;100564.88;;;0.03;100.00
55592;BME280;41454;53.396;-1.510;2022-12-18T01:05:55;100574.56;;;0.13;100.00
55592;BME280;41454;53.396;-1.510;2022-12-18T01:08:22;100572.41;;;-0.09;100.00
55592;BME280;41454;53.396;-1.510;2022-12-18T01:10:50;100567.50;;;-0.25;100.00
55592;BME280;41454;53.396;-1.510;2022-12-18T01:13:17;100565.23;;;-0.78;100.00
55592;BME280;41454;53.396;-1.510;2022-12-18T01:15:48;100568.31;;;-0.01;100.00
55592;BME280;41454;53.396;-1.510;2022-12-18T01:18:16;100568.91;;;0.50;100.00
55592;BME280;41454;53.396;-1.510;2022-12-18T01:20:44;100563.63;;;0.64;100.00
55592;BME280;41454;53.396;-1.510;2022-12-18T01:23:10;100559.01;;;0.86;100.00
55592;BME280;41454;53.396;-1.510;2022-12-18T01:25:38;100557.33;;;0.43;100.00
55592;BME280;41454;53.396;-1.510;2022-12-18T01:28:06;100553.60;;;0.37;100.00
55592;BME280;41454;53.396;-1.510;2022-12-18T01:30:33;100548.17;;;0.48;100.00
55592;BME280;41454;53.396;-1.510;2022-12-18T01:33:00;100544.15;;;1.04;100.00
55592;BME280;41454;53.396;-1.510;2022-12-18T01:35:27;100548.60;;;0.72;100.00
55592;BME280;41454;53.396;-1.510;2022-12-18T01:37:55;100547.37;;;-0.30;100.00
55592;BME280;41454;53.396;-1.510;2022-12-18T01:40:23;100551.08;;;0.39;100.00
55592;BME280;41454;53.396;-1.510;2022-12-18T01:42:51;100552.36;;;0.09;100.00
55592;BME280;41454;53.396;-1.510;2022-12-18T01:45:25;100553.30;;;-0.16;100.00
55592;BME280;41454;53.396;-1.510;2022-12-18T01:47:54;100553.46;;;0.02;100.00
55592;BME280;41454;53.396;-1.510;2022-12-18T01:50:24;100551.93;;;-0.05;100.00
55592;BME280;41454;53.396;-1.510;2022-12-18T01:52:54;100551.20;;;-0.31;100.00
55592;BME280;41454;53.396;-1.510;2022-12-18T01:55:25;100556.93;;;0.22;100.00
55592;BME280;41454;53.396;-1.510;2022-12-18T01:57:54;100559.64;;;0.11;100.00
55592;BME280;41454;53.396;-1.510;2022-12-18T02:00:23;100564.43;;;0.22;100.00
55592;BME280;41454;53.396;-1.510;2022-12-18T02:02:50;100563.21;;;0.59;100.00
55592;BME280;41454;53.396;-1.510;2022-12-18T02:05:19;100566.29;;;0.32;100.00
55592;BME280;41454;53.396;-1.510;2022-12-18T02:07:56;100561.90;;;-0.02;100.00
55592;BME280;41454;53.396;-1.510;2022-12-18T02:10:32;100563.82;;;0.32;100.00
55592;BME280;41454;53.396;-1.510;2022-12-18T02:13:09;100562.23;;;0.07;100.00
55592;BME280;41454;53.396;-1.510;2022-12-18T02:15:42;100556.24;;;0.26;100.00
55592;BME280;41454;53.396;-1.510;2022-12-18T02:18:13;100558.12;;;0.41;100.00
55592;BME280;41454;53.396;-1.510;2022-12-18T02:20:45;100560.43;;;0.56;100.00
55592;BME280;41454;53.396;-1.510;2022-12-18T02:23:24;100554.92;;;1.13;100.00
55592;BME280;41454;53.396;-1.510;2022-12-18T02:26:07;100559.36;;;0.95;100.00
55592;BME280;41454;53.396;-1.510;2022-12-18T02:28:41;100564.52;;;0.86;100.00
55592;BME280;41454;53.396;-1.510;2022-12-18T02:31:11;100568.39;;;0.79;100.00
55592;BME280;41454;53.396;-1.510;2022-12-18T02:33:40;100571.89;;;0.78;100.00
55592;BME280;41454;53.396;-1.510;2022-12-18T02:36:09;100569.92;;;0.64;100.00
55592;BME280;41454;53.396;-1.510;2022-12-18T02:38:37;100573.42;;;0.91;100.00
55592;BME280;41454;53.396;-1.510;2022-12-18T02:41:06;100573.65;;;0.48;100.00
55592;BME280;41454;53.396;-1.510;2022-12-18T02:43:34;100573.41;;;0.93;100.00
55592;BME280;41454;53.396;-1.510;2022-12-18T02:46:28;100570.01;;;0.80;100.00
55592;BME280;41454;53.396;-1.510;2022-12-18T02:49:05;100575.25;;;0.89;100.00
55592;BME280;41454;53.396;-1.510;2022-12-18T02:51:38;100578.98;;;0.74;100.00
55592;BME280;41454;53.396;-1.510;2022-12-18T02:54:31;100574.40;;;1.30;100.00
55592;BME280;41454;53.396;-1.510;2022-12-18T02:57:10;100562.94;;;0.66;100.00
55592;BME280;41454;53.396;-1.510;2022-12-18T02:59:44;100557.03;;;0.56;100.00
55592;BME280;41454;53.396;-1.510;2022-12-18T03:02:19;100554.22;;;0.36;100.00
55592;BME280;41454;53.396;-1.510;2022-12-18T03:04:51;100555.17;;;0.65;100.00
55592;BME280;41454;53.396;-1.510;2022-12-18T03:07:27;100550.43;;;0.46;100.00
55592;BME280;41454;53.396;-1.510;2022-12-18T03:09:56;100558.38;;;0.02;100.00
55592;BME280;41454;53.396;-1.510;2022-12-18T03:12:30;100553.37;;;0.59;100.00
55592;BME280;41454;53.396;-1.510;2022-12-18T03:15:02;100545.64;;;0.57;100.00
55592;BME280;41454;53.396;-1.510;2022-12-18T03:17:32;100543.42;;;0.64;100.00
55592;BME280;41454;53.396;-1.510;2022-12-18T03:20:05;100546.41;;;0.18;100.00
55592;BME280;41454;53.396;-1.510;2022-12-18T03:22:35;100542.71;;;-1.00;100.00
55592;BME280;41454;53.396;-1.510;2022-12-18T03:25:08;100544.50;;;-0.44;100.00
55592;BME280;41454;53.396;-1.510;2022-12-18T03:27:42;100541.63;;;-0.44;100.00
55592;BME280;41454;53.396;-1.510;2022-12-18T03:30:12;100540.28;;;0.19;100.00
55592;BME280;41454;53.396;-1.510;2022-12-18T03:32:43;100542.26;;;-0.40;100.00
55592;BME280;41454;53.396;-1.510;2022-12-18T03:35:13;100539.60;;;-1.00;100.00
55592;BME280;41454;53.396;-1.510;2022-12-18T03:37:40;100540.71;;;-1.47;100.00
55592;BME280;41454;53.396;-1.510;2022-12-18T03:40:09;100537.72;;;-1.44;100.00
55592;BME280;41454;53.396;-1.510;2022-12-18T03:42:41;100528.10;;;-1.18;100.00
55592;BME280;41454;53.396;-1.510;2022-12-18T03:45:15;100516.42;;;-0.99;100.00
55592;BME280;41454;53.396;-1.510;2022-12-18T03:47:52;100509.04;;;-0.92;100.00
55592;BME280;41454;53.396;-1.510;2022-12-18T03:50:24;100505.05;;;-0.54;100.00
55592;BME280;41454;53.396;-1.510;2022-12-18T03:53:00;100506.59;;;-1.20;100.00
55592;BME280;41454;53.396;-1.510;2022-12-18T03:55:33;100502.02;;;-1.39;100.00
55592;BME280;41454;53.396;-1.510;2022-12-18T03:58:02;100492.32;;;-1.03;100.00
55592;BME280;41454;53.396;-1.510;2022-12-18T04:00:31;100482.18;;;-1.45;100.00
55592;BME280;41454;53.396;-1.510;2022-12-18T04:03:00;100472.29;;;-1.31;100.00
55592;BME280;41454;53.396;-1.510;2022-12-18T04:05:28;100466.68;;;-1.16;100.00
55592;BME280;41454;53.396;-1.510;2022-12-18T04:07:57;100467.67;;;-1.16;100.00
55592;BME280;41454;53.396;-1.510;2022-12-18T04:10:25;100468.64;;;-1.81;100.00
55592;BME280;41454;53.396;-1.510;2022-12-18T04:12:55;100461.78;;;-1.95;100.00
55592;BME280;41454;53.396;-1.510;2022-12-18T04:15:23;100454.94;;;-1.40;100.00
55592;BME280;41454;53.396;-1.510;2022-12-18T04:17:51;100447.11;;;-1.39;100.00
55592;BME280;41454;53.396;-1.510;2022-12-18T04:20:18;100447.16;;;-1.79;100.00
55592;BME280;41454;53.396;-1.510;2022-12-18T04:22:46;100443.12;;;-1.21;100.00
55592;BME280;41454;53.396;-1.510;2022-12-18T04:25:13;100445.13;;;-1.90;100.00
55592;BME280;41454;53.396;-1.510;2022-12-18T04:27:40;100444.63;;;-1.19;100.00
55592;BME280;41454;53.396;-1.510;2022-12-18T04:30:09;100446.04;;;-1.34;100.00
55592;BME280;41454;53.396;-1.510;2022-12-18T04:32:36;100434.09;;;-1.36;100.00
55592;BME280;41454;53.396;-1.510;2022-12-18T04:35:04;100427.35;;;-1.46;100.00
55592;BME280;41454;53.396;-1.510;2022-12-18T04:37:32;100425.48;;;-1.53;100.00
55592;BME280;41454;53.396;-1.510;2022-12-18T04:39:59;100421.51;;;-1.90;100.00
55592;BME280;41454;53.396;-1.510;2022-12-18T04:42:26;100415.42;;;-1.44;100.00
55592;BME280;41454;53.396;-1.510;2022-12-18T04:44:53;100413.62;;;-1.10;100.00
55592;BME280;41454;53.396;-1.510;2022-12-18T04:47:20;100417.33;;;-1.64;100.00
55592;BME280;41454;53.396;-1.510;2022-12-18T04:49:47;100420.89;;;-1.29;100.00
55592;BME280;41454;53.396;-1.510;2022-12-18T04:52:14;100415.59;;;-1.39;100.00
55592;BME280;41454;53.396;-1.510;2022-12-18T04:54:41;100410.80;;;-1.67;100.00
55592;BME280;41454;53.396;-1.510;2022-12-18T04:57:08;100407.21;;;-1.88;100.00
55592;BME280;41454;53.396;-1.510;2022-12-18T04:59:36;100401.02;;;-2.15;100.00
55592;BME280;41454;53.396;-1.510;2022-12-18T05:02:02;100390.92;;;-2.13;100.00
55592;BME280;41454;53.396;-1.510;2022-12-18T05:04:29;100385.16;;;-2.36;100.00
55592;BME280;41454;53.396;-1.510;2022-12-18T05:06:57;100380.18;;;-2.21;100.00
55592;BME280;41454;53.396;-1.510;2022-12-18T05:09:24;100381.54;;;-2.44;100.00
55592;BME280;41454;53.396;-1.510;2022-12-18T05:11:52;100384.83;;;-2.82;100.00
55592;BME280;41454;53.396;-1.510;2022-12-18T05:14:19;100372.80;;;-2.47;100.00
55592;BME280;41454;53.396;-1.510;2022-12-18T05:16:46;100358.67;;;-2.20;100.00
55592;BME280;41454;53.396;-1.510;2022-12-18T05:19:13;100351.31;;;-1.84;100.00
55592;BME280;41454;53.396;-1.510;2022-12-18T05:21:40;100348.22;;;-1.78;100.00
55592;BME280;41454;53.396;-1.510;2022-12-18T05:24:08;100346.84;;;-2.17;100.00
55592;BME280;41454;53.396;-1.510;2022-12-18T05:26:35;100352.21;;;-1.25;100.00
55592;BME280;41454;53.396;-1.510;2022-12-18T05:29:02;100353.42;;;-1.87;100.00
55592;BME280;41454;53.396;-1.510;2022-12-18T05:31:29;100353.21;;;-1.00;100.00
55592;BME280;41454;53.396;-1.510;2022-12-18T05:33:57;100348.38;;;-0.66;100.00
55592;BME280;41454;53.396;-1.510;2022-12-18T05:36:24;100342.19;;;-0.32;100.00
55592;BME280;41454;53.396;-1.510;2022-12-18T05:38:51;100340.26;;;-0.25;100.00
55592;BME280;41454;53.396;-1.510;2022-12-18T05:41:19;100336.69;;;0.06;100.00
55592;BME280;41454;53.396;-1.510;2022-12-18T05:43:46;100338.23;;;0.15;100.00
55592;BME280;41454;53.396;-1.510;2022-12-18T05:46:14;100341.45;;;-0.34;100.00
55592;BME280;41454;53.396;-1.510;2022-12-18T05:48:43;100343.27;;;-0.73;100.00
55592;BME280;41454;53.396;-1.510;2022-12-18T05:51:13;100351.69;;;-0.96;100.00
55592;BME280;41454;53.396;-1.510;2022-12-18T05:53:43;100364.32;;;-1.14;100.00
55592;BME280;41454;53.396;-1.510;2022-12-18T05:56:11;100365.17;;;-1.68;100.00
55592;BME280;41454;53.396;-1.510;2022-12-18T05:58:38;100366.33;;;-1.91;100.00
55592;BME280;41454;53.396;-1.510;2022-12-18T06:01:08;100361.03;;;-2.11;100.00
55592;BME280;41454;53.396;-1.510;2022-12-18T06:03:36;100367.03;;;-1.61;100.00
55592;BME280;41454;53.396;-1.510;2022-12-18T06:06:11;100370.32;;;-1.66;100.00
55592;BME280;41454;53.396;-1.510;2022-12-18T06:08:39;100370.79;;;-2.42;100.00
55592;BME280;41454;53.396;-1.510;2022-12-18T06:11:06;100372.21;;;-2.30;100.00
55592;BME280;41454;53.396;-1.510;2022-12-18T06:13:34;100380.24;;;-2.67;100.00
55592;BME280;41454;53.396;-1.510;2022-12-18T06:16:02;100361.88;;;-2.32;100.00
55592;BME280;41454;53.396;-1.510;2022-12-18T06:18:30;100357.32;;;-2.97;100.00
55592;BME280;41454;53.396;-1.510;2022-12-18T06:20:58;100348.22;;;-2.96;100.00
55592;BME280;41454;53.396;-1.510;2022-12-18T06:23:27;100346.31;;;-2.94;100.00
55592;BME280;41454;53.396;-1.510;2022-12-18T06:25:54;100359.72;;;-2.84;100.00
55592;BME280;41454;53.396;-1.510;2022-12-18T06:28:21;100360.96;;;-2.57;100.00
55592;BME280;41454;53.396;-1.510;2022-12-18T06:30:49;100360.16;;;-3.01;100.00
55592;BME280;41454;53.396;-1.510;2022-12-18T06:33:17;100353.26;;;-2.56;100.00
55592;BME280;41454;53.396;-1.510;2022-12-18T06:35:44;100349.33;;;-2.84;100.00
55592;BME280;41454;53.396;-1.510;2022-12-18T06:38:11;100345.68;;;-3.15;100.00
55592;BME280;41454;53.396;-1.510;2022-12-18T06:40:38;100344.09;;;-2.70;100.00
55592;BME280;41454;53.396;-1.510;2022-12-18T06:43:06;100355.04;;;-3.07;100.00
55592;BME280;41454;53.396;-1.510;2022-12-18T06:45:33;100371.12;;;-3.22;100.00
55592;BME280;41454;53.396;-1.510;2022-12-18T06:48:01;100362.23;;;-3.04;100.00
55592;BME280;41454;53.396;-1.510;2022-12-18T06:50:28;100368.73;;;-2.21;100.00
55592;BME280;41454;53.396;-1.510;2022-12-18T06:52:55;100370.44;;;-2.20;100.00
55592;BME280;41454;53.396;-1.510;2022-12-18T06:55:22;100365.75;;;-1.70;100.00
55592;BME280;41454;53.396;-1.510;2022-12-18T06:57:49;100365.88;;;-1.88;100.00
55592;BME280;41454;53.396;-1.510;2022-12-18T07:00:18;100373.09;;;-1.46;100.00
55592;BME280;41454;53.396;-1.510;2022-12-18T07:02:45;100367.11;;;-1.65;100.00
55592;BME280;41454;53.396;-1.510;2022-12-18T07:05:12;100362.17;;;-1.45;100.00
55592;BME280;41454;53.396;-1.510;2022-12-18T07:07:40;100353.23;;;-1.37;100.00
55592;BME280;41454;53.396;-1.510;2022-12-18T07:10:07;100346.11;;;-1.45;100.00
55592;BME280;41454;53.396;-1.510;2022-12-18T07:12:34;100325.00;;;-2.10;100.00
55592;BME280;41454;53.396;-1.510;2022-12-18T07:15:01;100323.36;;;-1.69;100.00
55592;BME280;41454;53.396;-1.510;2022-12-18T07:17:29;100324.24;;;-2.31;100.00
55592;BME280;41454;53.396;-1.510;2022-12-18T07:19:56;100327.00;;;-2.40;100.00
55592;BME280;41454;53.396;-1.510;2022-12-18T07:22:25;100325.45;;;-2.19;100.00
55592;BME280;41454;53.396;-1.510;2022-12-18T07:24:52;100332.83;;;-1.86;100.00
55592;BME280;41454;53.396;-1.510;2022-12-18T07:27:19;100340.59;;;-2.73;100.00
55592;BME280;41454;53.396;-1.510;2022-12-18T07:29:47;100321.66;;;-3.07;100.00
55592;BME280;41454;53.396;-1.510;2022-12-18T07:32:14;100309.49;;;-2.69;100.00
55592;BME280;41454;53.396;-1.510;2022-12-18T07:34:42;100313.14;;;-2.09;100.00
55592;BME280;41454;53.396;-1.510;2022-12-18T07:37:09;100319.88;;;-1.60;100.00
55592;BME280;41454;53.396;-1.510;2022-12-18T07:39:36;100312.84;;;-1.97;100.00
55592;BME280;41454;53.396;-1.510;2022-12-18T07:42:04;100298.40;;;-2.11;100.00
55592;BME280;41454;53.396;-1.510;2022-12-18T07:44:31;100299.09;;;-1.73;100.00
55592;BME280;41454;53.396;-1.510;2022-12-18T07:46:58;100299.84;;;-2.18;100.00
55592;BME280;41454;53.396;-1.510;2022-12-18T07:49:25;100296.38;;;-1.48;100.00
55592;BME280;41454;53.396;-1.510;2022-12-18T07:51:54;100294.05;;;-1.99;100.00
55592;BME280;41454;53.396;-1.510;2022-12-18T07:54:21;100297.60;;;-2.56;100.00
55592;BME280;41454;53.396;-1.510;2022-12-18T07:56:49;100287.14;;;-2.05;100.00
55592;BME280;41454;53.396;-1.510;2022-12-18T07:59:18;100287.57;;;-1.89;100.00
55592;BME280;41454;53.396;-1.510;2022-12-18T08:01:45;100286.22;;;-2.72;100.00
55592;BME280;41454;53.396;-1.510;2022-12-18T08:04:12;100290.28;;;-2.83;100.00
55592;BME280;41454;53.396;-1.510;2022-12-18T08:06:39;100300.83;;;-2.43;100.00
55592;BME280;41454;53.396;-1.510;2022-12-18T08:09:07;100307.45;;;-2.56;100.00
55592;BME280;41454;53.396;-1.510;2022-12-18T08:11:34;100307.75;;;-2.54;100.00
55592;BME280;41454;53.396;-1.510;2022-12-18T08:14:01;100301.70;;;-2.20;100.00
55592;BME280;41454;53.396;-1.510;2022-12-18T08:16:28;100306.28;;;-2.72;100.00
55592;BME280;41454;53.396;-1.510;2022-12-18T08:18:56;100317.52;;;-2.86;100.00
55592;BME280;41454;53.396;-1.510;2022-12-18T08:21:25;100318.79;;;-3.33;100.00
55592;BME280;41454;53.396;-1.510;2022-12-18T08:23:54;100320.16;;;-3.24;100.00
55592;BME280;41454;53.396;-1.510;2022-12-18T08:26:22;100326.96;;;-2.83;100.00
55592;BME280;41454;53.396;-1.510;2022-12-18T08:28:50;100315.15;;;-2.52;100.00
55592;BME280;41454;53.396;-1.510;2022-12-18T08:31:18;100308.24;;;-2.42;100.00
55592;BME280;41454;53.396;-1.510;2022-12-18T08:33:47;100308.02;;;-2.18;100.00
55592;BME280;41454;53.396;-1.510;2022-12-18T08:36:15;100308.00;;;-2.58;100.00
55592;BME280;41454;53.396;-1.510;2022-12-18T08:38:42;100309.95;;;-2.13;100.00
55592;BME280;41454;53.396;-1.510;2022-12-18T08:41:11;100306.78;;;-2.38;100.00
55592;BME280;41454;53.396;-1.510;2022-12-18T08:43:39;100305.88;;;-1.52;100.00
55592;BME280;41454;53.396;-1.510;2022-12-18T08:46:06;100290.92;;;-1.80;100.00
55592;BME280;41454;53.396;-1.510;2022-12-18T08:48:33;100290.39;;;-1.66;100.00
55592;BME280;41454;53.396;-1.510;2022-12-18T08:51:00;100291.12;;;-1.70;100.00
55592;BME280;41454;53.396;-1.510;2022-12-18T08:53:27;100278.47;;;-1.27;100.00
55592;BME280;41454;53.396;-1.510;2022-12-18T08:55:56;100268.63;;;-2.36;100.00
55592;BME280;41454;53.396;-1.510;2022-12-18T08:58:23;100263.93;;;-2.05;100.00
55592;BME280;41454;53.396;-1.510;2022-12-18T09:00:50;100263.80;;;-2.13;100.00
55592;BME280;41454;53.396;-1.510;2022-12-18T09:03:18;100261.98;;;-2.59;100.00
55592;BME280;41454;53.396;-1.510;2022-12-18T09:05:46;100259.93;;;-2.68;100.00
55592;BME280;41454;53.396;-1.510;2022-12-18T09:08:13;100261.00;;;-2.48;100.00
55592;BME280;41454;53.396;-1.510;2022-12-18T09:10:43;100251.25;;;-1.89;100.00
55592;BME280;41454;53.396;-1.510;2022-12-18T09:13:10;100246.01;;;-2.56;100.00
55592;BME280;41454;53.396;-1.510;2022-12-18T09:15:41;100250.43;;;-2.08;100.00
55592;BME280;41454;53.396;-1.510;2022-12-18T09:18:09;100246.73;;;-2.17;100.00
55592;BME280;41454;53.396;-1.510;2022-12-18T09:20:36;100242.73;;;-1.35;100.00
55592;BME280;41454;53.396;-1.510;2022-12-18T09:23:04;100235.28;;;-1.87;100.00
55592;BME280;41454;53.396;-1.510;2022-12-18T09:25:31;100228.85;;;-2.10;100.00
55592;BME280;41454;53.396;-1.510;2022-12-18T09:27:58;100220.30;;;-2.05;100.00
55592;BME280;41454;53.396;-1.510;2022-12-18T09:30:26;100206.72;;;-1.58;100.00
55592;BME280;41454;53.396;-1.510;2022-12-18T09:32:53;100197.67;;;-2.02;100.00
55592;BME280;41454;53.396;-1.510;2022-12-18T09:35:21;100187.93;;;-2.16;100.00
55592;BME280;41454;53.396;-1.510;2022-12-18T09:37:48;100189.15;;;-2.64;100.00
55592;BME280;41454;53.396;-1.510;2022-12-18T09:40:18;100191.63;;;-2.48;100.00
55592;BME280;41454;53.396;-1.510;2022-12-18T09:42:52;100190.48;;;-2.30;100.00
55592;BME280;41454;53.396;-1.510;2022-12-18T09:45:21;100188.00;;;-2.47;100.00
55592;BME280;41454;53.396;-1.510;2022-12-18T09:47:52;100176.70;;;-2.46;100.00
55592;BME280;41454;53.396;-1.510;2022-12-18T09:50:26;100155.09;;;-2.66;100.00
55592;BME280;41454;53.396;-1.510;2022-12-18T09:52:55;100159.68;;;-2.47;100.00
55592;BME280;41454;53.396;-1.510;2022-12-18T09:55:28;100159.34;;;-2.26;100.00
55592;BME280;41454;53.396;-1.510;2022-12-18T09:58:02;100159.21;;;-1.62;100.00
55592;BME280;41454;53.396;-1.510;2022-12-18T10:00:32;100156.86;;;-1.42;100.00
55592;BME280;41454;53.396;-1.510;2022-12-18T10:03:02;100163.31;;;-1.19;100.00
55592;BME280;41454;53.396;-1.510;2022-12-18T10:05:37;100159.45;;;-1.73;100.00
55592;BME280;41454;53.396;-1.510;2022-12-18T10:08:11;100164.01;;;-1.92;100.00
55592;BME280;41454;53.396;-1.510;2022-12-18T10:10:46;100168.64;;;-1.71;100.00
55592;BME280;41454;53.396;-1.510;2022-12-18T10:13:22;100167.37;;;-2.40;100.00
55592;BME280;41454;53.396;-1.510;2022-12-18T10:15:57;100162.49;;;-2.38;100.00
55592;BME280;41454;53.396;-1.510;2022-12-18T10:18:36;100155.81;;;-2.32;100.00
55592;BME280;41454;53.396;-1.510;2022-12-18T10:21:11;100145.09;;;-2.03;100.00
55592;BME280;41454;53.396;-1.510;2022-12-18T10:23:47;100143.34;;;-1.82;100.00
55592;BME280;41454;53.396;-1.510;2022-12-18T10:26:18;100129.42;;;-1.64;100.00
55592;BME280;41454;53.396;-1.510;2022-12-18T10:28:46;100123.17;;;-1.51;100.00
55592;BME280;41454;53.396;-1.510;2022-12-18T10:31:17;100117.19;;;-2.12;100.00
55592;BME280;41454;53.396;-1.510;2022-12-18T10:33:44;100110.15;;;-1.29;100.00
55592;BME280;41454;53.396;-1.510;2022-12-18T10:36:11;100098.37;;;-1.32;100.00
55592;BME280;41454;53.396;-1.510;2022-12-18T10:38:39;100090.07;;;-1.20;100.00
55592;BME280;41454;53.396;-1.510;2022-12-18T10:41:24;100096.02;;;-1.12;100.00
55592;BME280;41454;53.396;-1.510;2022-12-18T10:44:11;100098.27;;;-1.51;100.00
55592;BME280;41454;53.396;-1.510;2022-12-18T10:46:39;100086.47;;;-0.75;100.00
55592;BME280;41454;53.396;-1.510;2022-12-18T10:49:18;100076.85;;;-0.52;100.00
55592;BME280;41454;53.396;-1.510;2022-12-18T10:51:47;100075.19;;;-1.42;100.00
55592;BME280;41454;53.396;-1.510;2022-12-18T10:54:16;100071.78;;;-1.81;100.00
55592;BME280;41454;53.396;-1.510;2022-12-18T10:56:44;100063.61;;;-1.96;100.00
55592;BME280;41454;53.396;-1.510;2022-12-18T10:59:13;100057.81;;;-1.22;100.00
55592;BME280;41454;53.396;-1.510;2022-12-18T11:01:50;100049.66;;;-1.51;100.00
55592;BME280;41454;53.396;-1.510;2022-12-18T11:04:21;100048.09;;;-2.34;100.00
55592;BME280;41454;53.396;-1.510;2022-12-18T11:06:58;100050.25;;;-1.95;100.00
55592;BME280;41454;53.396;-1.510;2022-12-18T11:09:27;100037.93;;;-1.83;100.00
55592;BME280;41454;53.396;-1.510;2022-12-18T11:11:57;100030.72;;;-1.85;100.00
55592;BME280;41454;53.396;-1.510;2022-12-18T11:14:27;100019.03;;;-1.97;100.00
55592;BME280;41454;53.396;-1.510;2022-12-18T11:16:55;100012.86;;;-1.46;100.00
55592;BME280;41454;53.396;-1.510;2022-12-18T11:19:31;100012.58;;;-1.32;100.00
55592;BME280;41454;53.396;-1.510;2022-12-18T11:21:59;100021.38;;;-0.49;100.00
55592;BME280;41454;53.396;-1.510;2022-12-18T11:24:30;100009.25;;;-1.00;100.00
55592;BME280;41454;53.396;-1.510;2022-12-18T11:27:00;99997.67;;;-1.20;100.00
55592;BME280;41454;53.396;-1.510;2022-12-18T11:29:33;99993.53;;;-1.12;100.00
55592;BME280;41454;53.396;-1.510;2022-12-18T11:32:35;99992.76;;;-1.00;100.00
55592;BME280;41454;53.396;-1.510;2022-12-18T11:35:14;99987.79;;;-1.07;100.00
55592;BME280;41454;53.396;-1.510;2022-12-18T11:37:48;99981.54;;;-0.84;100.00
55592;BME280;41454;53.396;-1.510;2022-12-18T11:40:21;99968.65;;;-0.50;100.00
55592;BME280;41454;53.396;-1.510;2022-12-18T11:42:56;99967.17;;;-0.18;100.00
55592;BME280;41454;53.396;-1.510;2022-12-18T11:45:28;99963.72;;;-0.15;100.00
55592;BME280;41454;53.396;-1.510;2022-12-18T11:48:00;99957.44;;;-0.65;100.00
55592;BME280;41454;53.396;-1.510;2022-12-18T11:50:33;99946.99;;;-0.77;100.00
55592;BME280;41454;53.396;-1.510;2022-12-18T11:53:11;99936.71;;;-0.68;100.00
55592;BME280;41454;53.396;-1.510;2022-12-18T11:55:44;99928.48;;;-0.49;100.00
55592;BME280;41454;53.396;-1.510;2022-12-18T11:58:23;99927.88;;;-1.15;100.00
55592;BME280;41454;53.396;-1.510;2022-12-18T12:01:00;99925.80;;;-1.26;100.00
55592;BME280;41454;53.396;-1.510;2022-12-18T12:03:45;99919.06;;;-1.02;100.00
55592;BME280;41454;53.396;-1.510;2022-12-18T12:06:20;99908.84;;;-0.90;100.00
55592;BME280;41454;53.396;-1.510;2022-12-18T12:09:00;99897.64;;;-0.96;100.00
55592;BME280;41454;53.396;-1.510;2022-12-18T12:11:41;99883.16;;;-0.83;100.00
55592;BME280;41454;53.396;-1.510;2022-12-18T12:14:21;99876.48;;;-0.57;100.00
55592;BME280;41454;53.396;-1.510;2022-12-18T12:16:55;99868.50;;;-0.68;100.00
55592;BME280;41454;53.396;-1.510;2022-12-18T12:19:35;99856.79;;;-0.77;100.00
55592;BME280;41454;53.396;-1.510;2022-12-18T12:22:10;99854.01;;;-1.60;100.00
55592;BME280;41454;53.396;-1.510;2022-12-18T12:24:52;99856.76;;;-1.44;100.00
55592;BME280;41454;53.396;-1.510;2022-12-18T12:27:28;99850.32;;;-1.38;100.00
55592;BME280;41454;53.396;-1.510;2022-12-18T12:30:04;99842.22;;;-1.45;100.00
55592;BME280;41454;53.396;-1.510;2022-12-18T12:32:43;99839.86;;;-0.55;100.00
55592;BME280;41454;53.396;-1.510;2022-12-18T12:35:24;99835.47;;;-0.75;100.00
55592;BME280;41454;53.396;-1.510;2022-12-18T12:38:03;99823.95;;;-1.02;100.00
55592;BME280;41454;53.396;-1.510;2022-12-18T12:40:34;99821.35;;;-0.61;100.00
55592;BME280;41454;53.396;-1.510;2022-12-18T12:43:03;99820.55;;;-0.37;100.00
55592;BME280;41454;53.396;-1.510;2022-12-18T12:45:37;99814.37;;;-0.81;100.00
55592;BME280;41454;53.396;-1.510;2022-12-18T12:48:13;99817.30;;;-0.52;100.00